Time;durP1;ratioP1;P1;durP2;ratioP2;P2;SDS_P1;SDS_P2;PMS_P1;PMS_P2;Temp;Humidity;BMP_temperature;BMP_pressure;BME280_temperature;BME280_humidity;BME280_pressure;Samples;Min_cycle;Max_cycle;Signal;HPM_P1;HPM_P2
2023/03/11 00:01:05;;;;;;;22.92;11.63;;;3.40;99.90;;;;;;5012082;28;20037;-74
2023/03/11 00:03:30;;;;;;;20.92;11.63;;;3.30;99.90;;;;;;5012922;28;20176;-74
2023/03/11 00:06:00;;;;;;;18.00;10.43;;;3.20;99.90;;;;;;5012130;28;20022;-74
2023/03/11 00:08:27;;;;;;;19.08;10.80;;;3.30;99.90;;;;;;5013148;28;20417;-75
2023/03/11 00:10:59;;;;;;;17.90;10.80;;;3.20;99.90;;;;;;5012895;28;20048;-74
2023/03/11 00:13:25;;;;;;;18.88;10.68;;;3.20;99.90;;;;;;5011712;28;20042;-75
2023/03/11 00:15:56;;;;;;;18.75;10.32;;;3.10;99.90;;;;;;5012718;28;20042;-74
2023/03/11 00:18:25;;;;;;;19.85;10.88;;;3.20;99.90;;;;;;5012875;28;20080;-74
2023/03/11 00:20:51;;;;;;;19.10;10.43;;;3.30;99.90;;;;;;5012742;28;20025;-74
2023/03/11 00:23:17;;;;;;;17.38;10.15;;;3.20;99.90;;;;;;5012083;28;20100;-74
2023/03/11 00:25:45;;;;;;;19.88;10.57;;;3.40;99.90;;;;;;5012891;28;20026;-74
2023/03/11 00:28:12;;;;;;;19.30;10.63;;;3.20;99.90;;;;;;5012445;28;20030;-75
2023/03/11 00:30:40;;;;;;;16.58;9.35;;;3.30;99.90;;;;;;5012396;28;20070;-74
2023/03/11 00:33:07;;;;;;;15.88;9.52;;;3.20;99.90;;;;;;5012277;28;20076;-74
2023/03/11 00:35:34;;;;;;;15.13;9.65;;;3.10;99.90;;;;;;5012684;28;20036;-73
2023/03/11 00:38:02;;;;;;;16.57;9.47;;;3.20;99.90;;;;;;5011285;28;20137;-74
2023/03/11 00:40:30;;;;;;;16.58;9.45;;;3.10;99.90;;;;;;5011262;28;20026;-74
2023/03/11 00:42:57;;;;;;;13.70;8.85;;;3.10;99.90;;;;;;5012041;28;20033;-75
2023/03/11 00:45:23;;;;;;;16.20;9.82;;;3.30;99.90;;;;;;5011972;28;20030;-74
2023/03/11 00:47:50;;;;;;;15.65;8.55;;;3.10;99.90;;;;;;5011555;28;20048;-76
2023/03/11 00:50:26;;;;;;;12.95;8.55;;;3.10;99.90;;;;;;5011212;28;20612;-74
2023/03/11 00:52:52;;;;;;;13.85;8.00;;;3.00;99.90;;;;;;5012167;28;20057;-75
2023/03/11 00:55:21;;;;;;;11.95;8.00;;;3.20;99.90;;;;;;5012218;28;20456;-74
2023/03/11 00:57:49;;;;;;;15.15;8.27;;;3.20;99.90;;;;;;5012084;28;20104;-75
2023/03/11 01:00:18;;;;;;;13.57;8.60;;;3.20;99.90;;;;;;5011859;28;20026;-74
2023/03/11 01:02:45;;;;;;;11.20;6.85;;;3.20;99.90;;;;;;5012180;28;20097;-74
2023/03/11 01:05:11;;;;;;;9.65;6.53;;;3.10;99.90;;;;;;5011934;28;20054;-75
2023/03/11 01:07:37;;;;;;;9.27;5.65;;;3.30;99.90;;;;;;5011759;28;20045;-75
2023/03/11 01:10:05;;;;;;;10.15;6.00;;;3.30;99.90;;;;;;5011839;28;20061;-76
2023/03/11 01:12:31;;;;;;;9.63;5.30;;;3.20;99.90;;;;;;5010653;28;20072;-75
2023/03/11 01:14:57;;;;;;;8.80;5.50;;;3.20;99.90;;;;;;5011821;28;20134;-76
2023/03/11 01:17:22;;;;;;;9.10;4.53;;;3.10;99.90;;;;;;5012366;28;20093;-75
2023/03/11 01:19:49;;;;;;;7.57;4.30;;;3.10;99.90;;;;;;5011717;28;20030;-75
2023/03/11 01:22:15;;;;;;;6.97;3.63;;;3.10;99.90;;;;;;5011631;28;20030;-75
2023/03/11 01:24:41;;;;;;;6.90;3.80;;;3.20;99.90;;;;;;5011553;28;20270;-74
2023/03/11 01:27:06;;;;;;;5.35;3.45;;;3.20;99.90;;;;;;5011679;28;20045;-75
2023/03/11 01:29:32;;;;;;;6.47;3.38;;;3.10;99.90;;;;;;5010510;28;20045;-75
2023/03/11 01:31:58;;;;;;;4.47;2.70;;;3.10;99.90;;;;;;5011758;28;20364;-75
2023/03/11 01:34:24;;;;;;;4.75;2.75;;;2.90;99.90;;;;;;5009929;28;20034;-75
2023/03/11 01:36:51;;;;;;;5.68;3.28;;;3.00;99.90;;;;;;5010362;28;20046;-75
2023/03/11 01:39:16;;;;;;;7.40;3.08;;;3.10;99.90;;;;;;5010283;28;20113;-75
2023/03/11 01:41:42;;;;;;;7.05;3.05;;;3.20;99.90;;;;;;5011622;28;20037;-75
2023/03/11 01:44:11;;;;;;;5.60;2.75;;;3.10;99.90;;;;;;5011047;28;20376;-75
2023/03/11 01:47:01;;;;;;;5.63;2.83;;;3.00;99.90;;;;;;5010246;28;20633;-75
2023/03/11 01:49:26;;;;;;;3.97;2.45;;;3.10;99.90;;;;;;5009956;28;20041;-74
2023/03/11 01:52:01;;;;;;;3.65;2.13;;;3.00;99.90;;;;;;5010531;28;20064;-75
2023/03/11 01:54:30;;;;;;;5.90;2.92;;;3.00;99.90;;;;;;5009849;28;20146;-76
2023/03/11 01:56:58;;;;;;;4.05;2.78;;;3.00;99.90;;;;;;5010943;28;20479;-75
2023/03/11 01:59:29;;;;;;;5.28;3.20;;;2.90;99.90;;;;;;5011975;28;20033;-74
2023/03/11 02:02:05;;;;;;;5.07;3.63;;;3.00;99.90;;;;;;5010970;28;20067;-75
2023/03/11 02:04:34;;;;;;;4.97;3.08;;;3.00;99.90;;;;;;5011037;28;20531;-74
2023/03/11 02:07:01;;;;;;;6.85;3.33;;;3.10;99.90;;;;;;5009604;28;20460;-74
2023/03/11 02:09:27;;;;;;;7.53;3.80;;;3.00;99.90;;;;;;5009775;28;20448;-75
2023/03/11 02:11:53;;;;;;;4.45;3.30;;;3.20;99.90;;;;;;5009626;28;20045;-75
2023/03/11 02:14:19;;;;;;;6.88;3.30;;;3.10;99.90;;;;;;5011167;28;20038;-75
2023/03/11 02:16:45;;;;;;;11.88;3.63;;;3.10;99.90;;;;;;5009609;28;20338;-75
2023/03/11 02:19:36;;;;;;;8.00;3.80;;;3.20;99.90;;;;;;5010612;28;20566;-75
2023/03/11 02:22:02;;;;;;;6.13;3.58;;;3.20;99.90;;;;;;5010514;28;20038;-76
2023/03/11 02:24:52;;;;;;;5.53;3.33;;;3.10;99.90;;;;;;5010615;28;20398;-76
2023/03/11 02:27:20;;;;;;;5.53;3.33;;;2.90;99.90;;;;;;5009650;28;20029;-75
2023/03/11 02:29:48;;;;;;;7.22;3.38;;;2.90;99.90;;;;;;5010747;28;20054;-75
2023/03/11 02:32:15;;;;;;;7.55;3.55;;;3.00;99.90;;;;;;5009451;28;20434;-74
2023/03/11 02:34:40;;;;;;;7.15;3.30;;;3.20;99.90;;;;;;5010358;28;20040;-76
2023/03/11 02:37:12;;;;;;;3.92;2.72;;;3.10;99.90;;;;;;5028066;28;20116;-76
2023/03/11 02:39:43;;;;;;;8.18;3.22;;;3.30;99.90;;;;;;5030419;28;20409;-74
2023/03/11 02:42:30;;;;;;;6.90;3.30;;;2.90;99.90;;;;;;5030140;28;20100;-75
2023/03/11 02:45:04;;;;;;;10.55;3.53;;;3.00;99.90;;;;;;5030217;28;20025;-75
2023/03/11 02:47:31;;;;;;;8.55;3.40;;;3.10;99.90;;;;;;5029598;28;20029;-75
2023/03/11 02:49:57;;;;;;;9.18;3.40;;;3.10;99.90;;;;;;5028891;28;20199;-74
2023/03/11 02:52:27;;;;;;;6.68;4.18;;;3.10;99.90;;;;;;5028937;28;20048;-75
2023/03/11 02:54:52;;;;;;;4.47;3.40;;;3.00;99.90;;;;;;5030052;28;20043;-75
2023/03/11 02:57:18;;;;;;;8.23;3.25;;;2.90;99.90;;;;;;5029067;28;20105;-76
2023/03/11 02:59:44;;;;;;;7.70;2.95;;;2.90;99.90;;;;;;5030577;28;20331;-74
2023/03/11 03:02:10;;;;;;;5.95;3.33;;;3.20;99.90;;;;;;5029128;28;20132;-74
2023/03/11 03:04:35;;;;;;;4.53;2.80;;;3.00;99.90;;;;;;5033968;28;20025;-74
2023/03/11 03:07:01;;;;;;;8.68;3.67;;;3.10;99.90;;;;;;5032876;28;20033;-75
2023/03/11 03:09:26;;;;;;;7.90;3.30;;;2.90;99.90;;;;;;5032663;28;20042;-74
2023/03/11 03:11:52;;;;;;;5.70;3.35;;;2.90;99.90;;;;;;5033810;28;20463;-74
2023/03/11 03:14:18;;;;;;;5.90;3.60;;;3.20;99.90;;;;;;5034051;28;20057;-76
2023/03/11 03:16:43;;;;;;;8.02;3.50;;;3.10;99.90;;;;;;5033562;28;20448;-75
2023/03/11 03:19:09;;;;;;;5.57;2.95;;;2.90;99.90;;;;;;5033775;28;20049;-74
2023/03/11 03:21:35;;;;;;;8.82;3.58;;;3.10;99.90;;;;;;5033513;28;20040;-75
2023/03/11 03:24:00;;;;;;;9.15;2.65;;;3.10;99.90;;;;;;5033878;28;20033;-73
2023/03/11 03:26:26;;;;;;;8.13;3.53;;;3.30;99.90;;;;;;5033983;28;20022;-74
2023/03/11 03:28:51;;;;;;;8.32;2.85;;;3.20;99.90;;;;;;5033503;28;20095;-74
2023/03/11 03:31:17;;;;;;;6.97;2.95;;;3.30;99.90;;;;;;5033507;28;20057;-75
2023/03/11 03:33:43;;;;;;;5.35;2.65;;;3.20;99.90;;;;;;5033482;28;20072;-75
2023/03/11 03:36:12;;;;;;;11.45;3.15;;;3.20;99.90;;;;;;5033470;28;20026;-75
2023/03/11 03:38:38;;;;;;;8.48;2.80;;;3.20;99.90;;;;;;5032884;28;20030;-75
2023/03/11 03:41:04;;;;;;;7.97;3.22;;;3.20;99.90;;;;;;5032312;28;20365;-75
2023/03/11 03:43:29;;;;;;;9.85;2.70;;;3.00;99.90;;;;;;5033603;28;20111;-75
2023/03/11 03:46:00;;;;;;;13.35;5.05;;;3.10;99.90;;;;;;5032154;28;20044;-75
2023/03/11 03:48:27;;;;;;;5.13;2.78;;;3.20;99.90;;;;;;5033694;28;20100;-76
2023/03/11 03:50:53;;;;;;;7.40;2.83;;;3.20;99.90;;;;;;5033838;28;20218;-75
2023/03/11 03:53:19;;;;;;;5.97;2.22;;;3.10;99.90;;;;;;5033673;28;20029;-73
2023/03/11 03:55:45;;;;;;;7.93;3.03;;;3.30;99.90;;;;;;5033209;28;20029;-75
2023/03/11 03:58:11;;;;;;;10.80;2.97;;;3.30;99.90;;;;;;5033178;28;20022;-74
2023/03/11 04:00:36;;;;;;;5.75;2.80;;;3.30;99.90;;;;;;5032926;28;20034;-75
2023/03/11 04:03:02;;;;;;;18.98;2.80;;;3.10;99.90;;;;;;5032785;28;20521;-75
2023/03/11 04:05:28;;;;;;;5.10;2.50;;;3.10;99.90;;;;;;5033352;28;20030;-76
2023/03/11 04:07:54;;;;;;;7.85;2.70;;;3.10;99.90;;;;;;5032828;28;20025;-76
2023/03/11 04:10:19;;;;;;;6.30;2.25;;;3.00;99.90;;;;;;5031790;28;20047;-76
2023/03/11 04:12:45;;;;;;;7.05;2.13;;;2.90;99.90;;;;;;5032751;28;20124;-75
2023/03/11 04:15:11;;;;;;;12.15;2.42;;;3.00;99.90;;;;;;5031036;28;20048;-75
2023/03/11 04:17:37;;;;;;;11.68;2.42;;;3.00;99.90;;;;;;5033324;28;20420;-76
2023/03/11 04:20:06;;;;;;;8.10;2.30;;;2.80;99.90;;;;;;5032791;28;20033;-75
2023/03/11 04:22:31;;;;;;;4.82;2.40;;;2.80;99.90;;;;;;5032505;28;20064;-75
2023/03/11 04:24:57;;;;;;;8.20;2.58;;;3.00;99.90;;;;;;5032541;28;20053;-75
2023/03/11 04:27:23;;;;;;;5.05;2.13;;;3.00;99.90;;;;;;5032265;28;20428;-76
2023/03/11 04:29:48;;;;;;;6.72;2.00;;;3.00;99.90;;;;;;5031253;28;20044;-75
2023/03/11 04:32:14;;;;;;;10.40;2.40;;;3.10;99.90;;;;;;5032285;28;20029;-75
2023/03/11 04:34:40;;;;;;;10.52;2.60;;;3.30;99.90;;;;;;5031887;28;20172;-74
2023/03/11 04:37:06;;;;;;;10.00;2.53;;;3.30;99.90;;;;;;5031073;28;20053;-74
2023/03/11 04:39:32;;;;;;;6.63;2.33;;;3.30;99.90;;;;;;5032155;28;20068;-75
2023/03/11 04:41:57;;;;;;;9.57;2.50;;;3.20;99.90;;;;;;5031998;28;20036;-76
2023/03/11 04:44:23;;;;;;;10.45;2.10;;;3.30;99.90;;;;;;5032747;28;20028;-75
2023/03/11 04:46:49;;;;;;;10.23;1.80;;;3.10;99.90;;;;;;5030921;28;20022;-75
2023/03/11 04:49:15;;;;;;;7.70;1.75;;;3.20;99.90;;;;;;5032456;28;20065;-75
2023/03/11 04:51:41;;;;;;;9.48;1.80;;;3.00;99.90;;;;;;5030626;28;20129;-76
2023/03/11 04:54:07;;;;;;;10.82;2.05;;;3.00;99.90;;;;;;5032153;28;20022;-76
2023/03/11 04:56:33;;;;;;;9.75;2.80;;;3.00;99.90;;;;;;5032292;28;20084;-75
2023/03/11 04:58:58;;;;;;;11.95;2.30;;;3.00;99.90;;;;;;5031878;28;20504;-75
2023/03/11 05:01:24;;;;;;;8.20;1.85;;;3.10;99.90;;;;;;5031742;28;20113;-75
2023/03/11 05:03:50;;;;;;;7.32;1.77;;;3.00;99.90;;;;;;5030670;28;20025;-74
2023/03/11 05:06:15;;;;;;;4.82;1.67;;;2.90;99.90;;;;;;5031674;28;20030;-75
2023/03/11 05:08:41;;;;;;;11.25;1.88;;;2.90;99.90;;;;;;5032027;28;20030;-75
2023/03/11 05:11:07;;;;;;;6.97;1.60;;;3.20;99.90;;;;;;5031721;28;20048;-74
2023/03/11 05:13:33;;;;;;;6.38;1.55;;;3.30;99.90;;;;;;5031492;28;20033;-75
2023/03/11 05:15:59;;;;;;;8.70;1.73;;;3.40;99.90;;;;;;5030232;28;20494;-75
2023/03/11 05:18:24;;;;;;;10.48;1.35;;;3.10;99.90;;;;;;5031288;28;20037;-75
2023/03/11 05:20:50;;;;;;;9.35;2.30;;;3.30;99.90;;;;;;5030683;28;20026;-74
2023/03/11 05:23:16;;;;;;;9.63;1.70;;;3.10;99.90;;;;;;5031479;28;20065;-75
2023/03/11 05:25:41;;;;;;;6.35;1.67;;;3.20;99.90;;;;;;5028950;28;20091;-74
2023/03/11 05:28:07;;;;;;;5.38;1.65;;;3.20;99.90;;;;;;5031518;28;20057;-74
2023/03/11 05:30:33;;;;;;;7.28;1.77;;;3.20;99.90;;;;;;5030946;28;20479;-75
2023/03/11 05:32:59;;;;;;;7.10;1.70;;;3.40;99.90;;;;;;5031403;28;20586;-74
2023/03/11 05:35:24;;;;;;;2.22;1.02;;;3.50;99.90;;;;;;5031547;28;20034;-75
2023/03/11 05:37:52;;;;;;;4.50;1.85;;;3.60;99.90;;;;;;5031076;28;20418;-75
2023/03/11 05:40:18;;;;;;;4.43;1.10;;;3.60;99.90;;;;;;5031290;28;20095;-76
2023/03/11 05:42:43;;;;;;;9.05;1.92;;;3.70;99.90;;;;;;5030103;28;20029;-74
2023/03/11 05:45:09;;;;;;;8.35;1.73;;;3.60;99.90;;;;;;5030988;28;20037;-74
2023/03/11 05:47:35;;;;;;;5.75;1.23;;;3.70;99.90;;;;;;5031467;28;20100;-76
2023/03/11 05:50:01;;;;;;;6.60;1.55;;;3.70;99.90;;;;;;5030933;28;20047;-75
2023/03/11 05:52:29;;;;;;;12.57;1.58;;;3.60;99.90;;;;;;5031007;28;20075;-74
2023/03/11 05:54:54;;;;;;;;;;;3.70;99.90;;;;;;5031211;28;20048;-76
2023/03/11 05:57:20;;;;;;;9.20;1.65;;;3.60;99.90;;;;;;5030836;28;20320;-75
2023/03/11 05:59:46;;;;;;;7.90;1.67;;;3.40;99.90;;;;;;5031002;28;20100;-74
2023/03/11 06:02:12;;;;;;;3.92;1.60;;;3.30;99.90;;;;;;5030719;28;20029;-74
2023/03/11 06:04:37;;;;;;;7.45;1.33;;;3.40;99.90;;;;;;5030733;28;20121;-75
2023/03/11 06:07:03;;;;;;;8.85;2.13;;;3.40;99.90;;;;;;5030565;28;20363;-75
2023/03/11 06:09:29;;;;;;;7.30;1.33;;;3.40;99.90;;;;;;5030735;28;20045;-74
2023/03/11 06:11:54;;;;;;;5.38;1.33;;;3.40;99.90;;;;;;5029565;28;20320;-74
2023/03/11 06:14:20;;;;;;;10.77;1.95;;;3.50;99.90;;;;;;5030979;28;20036;-73
2023/03/11 06:16:46;;;;;;;11.07;1.40;;;3.40;99.90;;;;;;5030607;28;20094;-73
2023/03/11 06:19:12;;;;;;;7.68;1.40;;;3.50;99.90;;;;;;5030551;28;20086;-73
2023/03/11 06:21:37;;;;;;;8.68;2.17;;;3.40;99.90;;;;;;5030414;28;20068;-75
2023/03/11 06:24:03;;;;;;;9.18;1.42;;;3.30;99.90;;;;;;5030531;28;20021;-76
2023/03/11 06:26:29;;;;;;;8.48;1.70;;;3.40;99.90;;;;;;5031091;28;20110;-76
2023/03/11 06:28:55;;;;;;;5.13;1.58;;;3.30;99.90;;;;;;5029394;28;20455;-75
2023/03/11 06:31:26;;;;;;;4.05;1.45;;;3.30;99.90;;;;;;5030572;28;20038;-76
2023/03/11 06:33:54;;;;;;;7.82;1.48;;;3.20;99.90;;;;;;5029651;28;20056;-74
2023/03/11 06:36:20;;;;;;;;;;;3.40;99.90;;;;;;5031617;28;20033;-75
2023/03/11 06:38:48;;;;;;;8.10;1.17;;;3.30;99.90;;;;;;5037363;28;20238;-75
2023/03/11 06:41:14;;;;;;;9.27;1.70;;;3.30;99.90;;;;;;5037303;28;20047;-74
2023/03/11 06:43:39;;;;;;;13.10;1.85;;;3.20;99.90;;;;;;5035809;28;20112;-76
2023/03/11 06:46:14;;;;;;;7.93;1.33;;;3.20;99.90;;;;;;5036878;28;20059;-72
2023/03/11 06:48:40;;;;;;;7.72;1.38;;;3.40;99.90;;;;;;5032177;28;20049;-74
2023/03/11 06:51:05;;;;;;;8.93;1.60;;;3.60;99.90;;;;;;5038144;28;20025;-73
2023/03/11 06:53:31;;;;;;;9.23;1.58;;;3.60;99.90;;;;;;5037401;28;20025;-73
2023/03/11 06:56:09;;;;;;;6.32;1.58;;;3.60;99.90;;;;;;5037893;28;20487;-73
2023/03/11 06:58:36;;;;;;;8.63;1.77;;;3.50;99.90;;;;;;5036613;28;20029;-74
2023/03/11 07:01:17;;;;;;;5.53;1.42;;;3.70;99.90;;;;;;5037752;28;20214;-70
2023/03/11 07:03:45;;;;;;;7.03;1.75;;;3.70;99.90;;;;;;5037776;28;20045;-71
2023/03/11 07:06:17;;;;;;;5.50;1.20;;;3.60;99.90;;;;;;5038050;28;20397;-71
2023/03/11 07:08:44;;;;;;;7.57;1.70;;;3.80;99.90;;;;;;5037888;28;20028;-71
2023/03/11 07:11:17;;;;;;;6.38;1.35;;;4.00;99.90;;;;;;5037646;28;20026;-71
2023/03/11 07:13:43;;;;;;;10.32;1.33;;;4.00;99.90;;;;;;5037646;28;20022;-72
2023/03/11 07:16:20;;;;;;;7.22;1.20;;;3.80;99.90;;;;;;5037220;28;20368;-70
2023/03/11 07:18:47;;;;;;;3.55;1.08;;;3.70;99.90;;;;;;5037452;28;20415;-71
2023/03/11 07:21:15;;;;;;;4.90;1.70;;;3.90;99.90;;;;;;5037506;28;20570;-71
2023/03/11 07:23:42;;;;;;;7.57;1.45;;;3.70;99.90;;;;;;5037086;28;20116;-70
2023/03/11 07:26:12;;;;;;;6.25;1.60;;;3.70;99.90;;;;;;5037358;28;20033;-71
2023/03/11 07:28:39;;;;;;;11.50;2.00;;;3.70;99.90;;;;;;5036396;28;20075;-71
2023/03/11 07:31:18;;;;;;;10.90;2.22;;;3.50;99.90;;;;;;5036868;28;20049;-68
2023/03/11 07:33:44;;;;;;;21.70;2.00;;;3.70;99.90;;;;;;5037305;28;20407;-72
2023/03/11 07:36:15;;;;;;;9.68;2.10;;;3.70;99.90;;;;;;5037375;28;20040;-72
2023/03/11 07:38:42;;;;;;;11.63;1.77;;;3.70;99.90;;;;;;5037804;28;20025;-73
2023/03/11 07:41:12;;;;;;;6.78;1.25;;;3.80;99.90;;;;;;5037451;28;20033;-70
2023/03/11 07:43:39;;;;;;;11.77;1.70;;;3.60;99.90;;;;;;5037479;28;20029;-72
2023/03/11 07:46:07;;;;;;;9.25;1.60;;;3.70;99.90;;;;;;5036806;28;20033;-71
2023/03/11 07:48:34;;;;;;;9.05;1.90;;;3.80;99.90;;;;;;5035112;28;20175;-72
2023/03/11 07:51:26;;;;;;;8.77;1.40;;;3.70;99.90;;;;;;5034456;28;20044;-70
2023/03/11 07:53:54;;;;;;;8.50;2.05;;;3.80;99.90;;;;;;5033205;28;20025;-71
2023/03/11 07:56:23;;;;;;;7.55;1.45;;;3.70;99.90;;;;;;5033299;28;20372;-72
2023/03/11 07:58:49;;;;;;;2.83;1.20;;;3.70;99.90;;;;;;5033921;28;20033;-71
2023/03/11 08:01:18;;;;;;;7.05;1.60;;;3.90;99.90;;;;;;5033468;28;20029;-73
2023/03/11 08:03:45;;;;;;;10.55;1.80;;;3.80;99.90;;;;;;5032502;28;20451;-72
2023/03/11 08:06:13;;;;;;;9.33;1.63;;;4.00;99.90;;;;;;5033896;28;20044;-77
2023/03/11 08:08:39;;;;;;;6.85;1.75;;;4.00;99.90;;;;;;5033888;28;20246;-72
2023/03/11 08:11:05;;;;;;;4.93;1.52;;;3.90;99.90;;;;;;5033107;28;20033;-72
2023/03/11 08:13:32;;;;;;;4.82;1.13;;;4.10;99.90;;;;;;5032577;28;20036;-75
2023/03/11 08:15:57;;;;;;;5.78;1.38;;;4.20;99.90;;;;;;5032486;28;20076;-72
2023/03/11 08:18:23;;;;;;;8.88;1.55;;;4.00;99.90;;;;;;5032489;28;20057;-74
2023/03/11 08:20:49;;;;;;;6.28;1.88;;;4.00;99.90;;;;;;5031729;28;20052;-74
2023/03/11 08:23:14;;;;;;;6.10;2.22;;;4.00;99.90;;;;;;5032387;28;20497;-73
2023/03/11 08:25:41;;;;;;;14.23;1.92;;;4.10;99.90;;;;;;5032461;28;20427;-72
2023/03/11 08:28:07;;;;;;;8.98;2.17;;;4.10;99.90;;;;;;5032149;28;20049;-73
2023/03/11 08:30:33;;;;;;;8.80;3.33;;;4.50;99.90;;;;;;5031823;28;20046;-73
2023/03/11 08:32:59;;;;;;;6.05;2.17;;;4.40;99.90;;;;;;5031959;28;20071;-72
2023/03/11 08:35:25;;;;;;;8.73;1.98;;;4.60;99.90;;;;;;5032287;28;20025;-73
2023/03/11 08:37:52;;;;;;;4.93;1.60;;;4.70;99.90;;;;;;5032234;28;20510;-73
2023/03/11 08:40:17;;;;;;;15.98;2.47;;;4.90;99.90;;;;;;5030941;28;20037;-74
2023/03/11 08:42:43;;;;;;;12.23;1.70;;;4.90;99.90;;;;;;5031927;28;20040;-74
2023/03/11 08:45:10;;;;;;;9.13;1.92;;;5.20;99.90;;;;;;5030815;28;20025;-75
2023/03/11 08:47:37;;;;;;;5.55;2.08;;;5.20;99.90;;;;;;5032138;28;20029;-75
2023/03/11 08:50:05;;;;;;;10.50;2.55;;;5.00;99.50;;;;;;5031898;28;20081;-72
2023/03/11 08:52:31;;;;;;;9.82;1.77;;;5.20;99.90;;;;;;5031866;28;20044;-75
2023/03/11 08:54:57;;;;;;;8.75;2.28;;;5.30;99.90;;;;;;5031803;28;20037;-75
2023/03/11 08:57:23;;;;;;;4.03;1.60;;;5.20;99.50;;;;;;5031955;28;20455;-73
2023/03/11 08:59:48;;;;;;;6.57;1.48;;;5.50;99.90;;;;;;5031338;28;20400;-72
2023/03/11 09:02:14;;;;;;;6.43;1.80;;;5.40;99.20;;;;;;5031130;28;20033;-72
2023/03/11 09:04:40;;;;;;;5.85;1.52;;;5.90;99.50;;;;;;5031708;28;20420;-74
2023/03/11 09:07:05;;;;;;;7.00;1.33;;;6.80;97.70;;;;;;5031666;28;20064;-73
2023/03/11 09:09:31;;;;;;;4.53;1.50;;;6.70;97.60;;;;;;5031720;28;20034;-74
2023/03/11 09:11:57;;;;;;;5.90;1.60;;;7.20;96.80;;;;;;5030306;28;20041;-73
2023/03/11 09:14:22;;;;;;;1.85;0.90;;;6.70;97.10;;;;;;5030627;28;20129;-74
2023/03/11 09:16:48;;;;;;;6.93;1.52;;;6.80;96.80;;;;;;5031421;28;20025;-74
2023/03/11 09:19:13;;;;;;;5.57;1.63;;;7.00;96.30;;;;;;5031383;28;20025;-73
2023/03/11 09:21:39;;;;;;;6.50;1.65;;;8.40;97.30;;;;;;5030994;28;20079;-74
2023/03/11 09:24:06;;;;;;;4.15;1.63;;;9.80;95.10;;;;;;5031151;28;20122;-74
2023/03/11 09:26:32;;;;;;;9.93;2.10;;;10.80;94.50;;;;;;5031646;28;20423;-75
2023/03/11 09:28:57;;;;;;;5.60;1.67;;;11.30;92.40;;;;;;5030921;28;20037;-75
2023/03/11 09:31:23;;;;;;;4.78;1.35;;;11.60;92.10;;;;;;5029700;28;20029;-76
2023/03/11 09:33:51;;;;;;;10.35;1.70;;;11.80;91.30;;;;;;5030943;28;20041;-76
2023/03/11 09:36:18;;;;;;;5.40;1.20;;;12.10;91.80;;;;;;5030863;28;20040;-76
2023/03/11 09:38:45;;;;;;;5.72;1.67;;;12.90;92.00;;;;;;5030397;28;20108;-76
2023/03/11 09:41:17;;;;;;;3.45;1.17;;;13.50;87.90;;;;;;5031176;28;20034;-77
2023/03/11 09:44:13;;;;;;;9.32;2.30;;;13.20;86.50;;;;;;5030968;28;20116;-76
2023/03/11 09:47:10;;;;;;;7.40;1.40;;;13.90;83.10;;;;;;5030703;28;20049;-75
2023/03/11 09:49:50;;;;;;;5.00;1.38;;;14.70;82.90;;;;;;5031032;28;20045;-74
2023/03/11 09:52:25;;;;;;;3.33;1.20;;;15.50;79.70;;;;;;5030771;28;20029;-74
2023/03/11 09:54:53;;;;;;;5.30;1.60;;;15.90;79.90;;;;;;5030884;28;20566;-75
2023/03/11 09:57:24;;;;;;;4.15;1.30;;;16.30;77.60;;;;;;5029560;28;20377;-74
2023/03/11 09:59:50;;;;;;;9.30;1.55;;;16.30;78.30;;;;;;5030084;28;20032;-74
2023/03/11 10:02:25;;;;;;;4.53;1.40;;;16.30;74.70;;;;;;5029631;28;20292;-74
2023/03/11 10:05:01;;;;;;;2.85;1.30;;;15.70;73.60;;;;;;5030653;28;20467;-74
2023/03/11 10:07:32;;;;;;;4.63;1.67;;;15.50;73.90;;;;;;5029312;28;20132;-72
2023/03/11 10:09:59;;;;;;;11.95;2.78;;;14.70;74.40;;;;;;5030371;28;20034;-74
2023/03/11 10:12:38;;;;;;;19.98;10.20;;;16.10;74.10;;;;;;5030020;28;20029;-73
2023/03/11 10:15:26;;;;;;;10.55;3.60;;;16.00;71.70;;;;;;5030447;28;20036;-73
2023/03/11 10:18:13;;;;;;;5.13;3.40;;;15.00;70.50;;;;;;5030398;28;20052;-73
2023/03/11 10:20:45;;;;;;;7.83;1.63;;;14.80;72.30;;;;;;5029686;28;20029;-73
2023/03/11 10:23:25;;;;;;;2.55;1.50;;;14.20;72.00;;;;;;5029227;28;20025;-73
2023/03/11 10:26:06;;;;;;;3.78;1.60;;;14.80;72.00;;;;;;5030279;28;20033;-77
2023/03/11 10:28:40;;;;;;;7.13;1.50;;;14.20;70.30;;;;;;5030307;28;20113;-72
2023/03/11 10:31:21;;;;;;;5.88;1.50;;;15.00;74.00;;;;;;5030286;28;20042;-73
2023/03/11 10:33:56;;;;;;;5.82;1.50;;;14.70;70.90;;;;;;5030304;28;20029;-73
2023/03/11 10:36:27;;;;;;;9.98;1.55;;;14.40;70.00;;;;;;5029447;28;20034;-74
2023/03/11 10:38:54;;;;;;;9.77;1.52;;;15.30;70.80;;;;;;5029637;28;20055;-74
2023/03/11 10:41:30;;;;;;;3.95;1.15;;;15.90;70.60;;;;;;5029780;28;20037;-73
2023/03/11 10:43:58;;;;;;;3.42;1.75;;;16.50;66.60;;;;;;5028455;28;20049;-73
2023/03/11 10:46:25;;;;;;;6.55;1.70;;;17.30;68.20;;;;;;5028935;28;20036;-73
2023/03/11 10:48:51;;;;;;;7.30;1.42;;;17.50;63.30;;;;;;5029762;28;20482;-74
2023/03/11 10:51:23;;;;;;;6.18;1.63;;;18.30;67.40;;;;;;5030315;28;20037;-73
2023/03/11 10:53:52;;;;;;;11.60;2.47;;;19.30;63.80;;;;;;5029943;28;20029;-74
2023/03/11 10:56:33;;;;;;;3.33;1.40;;;19.40;60.50;;;;;;5030065;28;20036;-74
2023/03/11 10:59:00;;;;;;;4.57;1.45;;;18.80;58.60;;;;;;5029248;28;20017;-74
2023/03/11 11:01:27;;;;;;;5.45;1.33;;;18.30;57.40;;;;;;5030113;28;20120;-72
2023/03/11 11:03:56;;;;;;;8.52;1.33;;;16.10;59.30;;;;;;5029021;28;20038;-75
2023/03/11 11:06:26;;;;;;;8.48;1.48;;;17.30;61.10;;;;;;5028497;28;20092;-74
2023/03/11 11:09:05;;;;;;;5.43;1.15;;;16.80;58.80;;;;;;5030398;28;20021;-74
2023/03/11 11:11:34;;;;;;;3.45;1.35;;;17.50;58.60;;;;;;5030121;28;20072;-74
2023/03/11 11:14:00;;;;;;;6.53;1.52;;;18.00;59.10;;;;;;5028973;28;20041;-73
2023/03/11 11:16:27;;;;;;;9.88;4.20;;;17.20;57.30;;;;;;5028713;28;20048;-75
2023/03/11 11:19:03;;;;;;;15.93;8.52;;;17.60;58.70;;;;;;5030029;28;20121;-74
2023/03/11 11:21:34;;;;;;;6.05;1.60;;;18.40;57.10;;;;;;5030245;28;20041;-74
2023/03/11 11:24:00;;;;;;;5.25;1.67;;;18.40;58.00;;;;;;5030238;28;20030;-73
2023/03/11 11:26:26;;;;;;;4.90;1.17;;;18.20;57.50;;;;;;5034219;28;20026;-73
2023/03/11 11:29:12;;;;;;;5.82;1.90;;;17.60;55.10;;;;;;5033553;28;20029;-72
2023/03/11 11:31:48;;;;;;;5.60;1.95;;;17.60;56.50;;;;;;5032410;28;20045;-73
2023/03/11 11:34:26;;;;;;;8.73;1.30;;;18.00;56.20;;;;;;5033602;28;20369;-73
2023/03/11 11:36:51;;;;;;;5.07;1.98;;;18.20;54.90;;;;;;5033435;28;20120;-72
2023/03/11 11:39:20;;;;;;;3.28;1.50;;;17.90;55.30;;;;;;5033393;28;20113;-72
2023/03/11 11:41:48;;;;;;;15.90;2.80;;;18.40;56.00;;;;;;5032675;28;20135;-72
2023/03/11 11:44:19;;;;;;;6.80;1.75;;;18.20;54.80;;;;;;5033364;28;20040;-73
2023/03/11 11:47:17;;;;;;;6.03;1.70;;;16.80;56.40;;;;;;5032462;28;20088;-73
2023/03/11 11:49:55;;;;;;;4.93;1.48;;;18.30;56.10;;;;;;5033083;28;20034;-73
2023/03/11 11:52:29;;;;;;;6.72;1.23;;;18.40;55.50;;;;;;5032030;28;20504;-72
2023/03/11 11:55:18;;;;;;;7.43;1.65;;;15.70;55.70;;;;;;5032962;28;20037;-72
2023/03/11 11:57:45;;;;;;;8.02;1.85;;;15.10;58.50;;;;;;5033014;28;20488;-71
2023/03/11 12:00:24;;;;;;;9.15;2.35;;;15.30;60.40;;;;;;5031926;28;20029;-72
2023/03/11 12:03:19;;;;;;;6.45;1.63;;;15.30;58.60;;;;;;5033469;28;20014;-73
2023/03/11 12:05:58;;;;;;;5.25;1.55;;;14.70;59.70;;;;;;5033118;28;20387;-72
2023/03/11 12:08:36;;;;;;;6.32;1.27;;;14.30;59.60;;;;;;5032974;28;20110;-72
2023/03/11 12:11:06;;;;;;;3.10;1.20;;;13.70;60.20;;;;;;5032970;28;20341;-73
2023/03/11 12:13:50;;;;;;;10.20;1.70;;;13.70;61.10;;;;;;5032725;28;20036;-72
2023/03/11 12:16:49;;;;;;;4.75;1.77;;;13.10;62.70;;;;;;5032836;28;20069;-71
2023/03/11 12:19:32;;;;;;;4.75;1.50;;;12.70;63.70;;;;;;5031593;28;20353;-72
2023/03/11 12:22:29;;;;;;;8.40;1.58;;;12.70;63.50;;;;;;5032508;28;20471;-71
2023/03/11 12:25:21;;;;;;;6.47;1.40;;;12.30;64.20;;;;;;5032605;28;20026;-72
2023/03/11 12:27:57;;;;;;;4.85;1.80;;;12.10;65.60;;;;;;5032507;28;20037;-71
2023/03/11 12:30:35;;;;;;;5.20;1.98;;;12.20;67.40;;;;;;5031019;28;20098;-71
2023/03/11 12:33:09;;;;;;;13.02;1.80;;;12.00;66.40;;;;;;5032500;28;20021;-72
2023/03/11 12:35:35;;;;;;;14.10;4.28;;;11.60;66.40;;;;;;5032780;28;20025;-72
2023/03/11 12:38:33;;;;;;;12.32;3.95;;;11.70;68.00;;;;;;5031138;28;20119;-71
2023/03/11 12:41:02;;;;;;;7.55;2.10;;;11.40;67.30;;;;;;5011646;28;20377;-72
2023/03/11 12:43:34;;;;;;;6.18;1.50;;;10.90;68.30;;;;;;5024966;28;20037;-72
2023/03/11 12:46:04;;;;;;;5.95;1.48;;;11.20;70.10;;;;;;5032390;28;20029;-72
2023/03/11 12:48:35;;;;;;;5.00;1.60;;;11.10;70.10;;;;;;5032216;28;20037;-71
2023/03/11 12:51:01;;;;;;;6.70;2.38;;;10.80;70.30;;;;;;5032288;28;20017;-70
2023/03/11 12:53:47;;;;;;;10.82;1.52;;;10.40;71.20;;;;;;5032830;28;20445;-71
2023/03/11 12:56:33;;;;;;;9.73;1.27;;;10.20;70.20;;;;;;5031014;28;20048;-75
2023/03/11 12:59:31;;;;;;;3.35;1.40;;;10.30;71.50;;;;;;5032129;28;20025;-73
2023/03/11 13:02:10;;;;;;;7.30;1.60;;;9.80;73.20;;;;;;5023710;28;20030;-73
2023/03/11 13:04:57;;;;;;;6.00;1.17;;;9.60;74.90;;;;;;5032088;28;20037;-71